createdAt,value
2019-02-16T00:00:39.275Z,1014.42
2019-02-16T00:01:39.266Z,1014.43
2019-02-16T00:02:39.252Z,1014.46
2019-02-16T00:03:39.242Z,1014.42
2019-02-16T00:04:39.247Z,1014.42
2019-02-16T00:05:39.220Z,1014.36
2019-02-16T00:06:39.208Z,1014.41
2019-02-16T00:07:39.195Z,1014.52
2019-02-16T00:08:39.189Z,1014.32
2019-02-16T00:09:39.191Z,1014.40
2019-02-16T00:10:39.160Z,1014.32
2019-02-16T00:11:39.151Z,1014.28
2019-02-16T00:12:39.138Z,1014.38
2019-02-16T00:13:39.126Z,1014.33
2019-02-16T00:14:39.141Z,1014.45
2019-02-16T00:15:39.104Z,1014.31
2019-02-16T00:16:39.091Z,1014.30
2019-02-16T00:17:39.080Z,1014.36
2019-02-16T00:18:39.069Z,1014.36
2019-02-16T00:19:39.054Z,1014.40
2019-02-16T00:20:39.064Z,1014.37
2019-02-16T00:21:39.038Z,1014.34
2019-02-16T00:22:39.025Z,1014.39
2019-02-16T00:23:39.017Z,1014.35
2019-02-16T00:24:38.997Z,1014.36
2019-02-16T00:25:39.005Z,1014.39
2019-02-16T00:26:38.974Z,1014.40
2019-02-16T00:27:38.966Z,1014.27
2019-02-16T00:28:38.950Z,1014.29
2019-02-16T00:29:38.939Z,1014.34
2019-02-16T00:30:38.949Z,1014.37
2019-02-16T00:31:38.916Z,1014.39
2019-02-16T00:32:38.904Z,1014.38
2019-02-16T00:33:38.900Z,1014.48
2019-02-16T00:34:38.881Z,1014.46
2019-02-16T00:35:38.889Z,1014.41
2019-02-16T00:36:38.859Z,1014.43
2019-02-16T00:37:38.851Z,1014.41
2019-02-16T00:38:38.841Z,1014.45
2019-02-16T00:39:38.824Z,1014.44
2019-02-16T00:40:38.830Z,1014.42
2019-02-16T00:41:38.799Z,1014.40
2019-02-16T00:42:38.790Z,1014.41
2019-02-16T00:43:38.776Z,1014.35
2019-02-16T00:44:38.765Z,1014.41
2019-02-16T00:45:38.809Z,1014.39
2019-02-16T00:46:38.741Z,1014.40
2019-02-16T00:47:38.731Z,1014.37
2019-02-16T00:48:38.721Z,1014.34
2019-02-16T00:49:38.707Z,1014.34
2019-02-16T00:50:38.712Z,1014.33
2019-02-16T00:51:38.702Z,1014.31
2019-02-16T00:52:38.673Z,1014.36
2019-02-16T00:53:39.916Z,1014.39
2019-02-16T00:54:38.649Z,1014.35
2019-02-16T00:55:38.638Z,1014.36
2019-02-16T00:56:38.644Z,1014.33
2019-02-16T00:57:38.616Z,1014.26
2019-02-16T00:58:38.603Z,1014.33
2019-02-16T00:59:38.592Z,1014.26
2019-02-16T01:00:38.581Z,1014.29
2019-02-16T01:01:38.585Z,1014.29
2019-02-16T01:02:38.561Z,1014.21
2019-02-16T01:03:38.544Z,1014.31
2019-02-16T01:04:39.245Z,1014.31
2019-02-16T01:05:38.522Z,1014.18
2019-02-16T01:06:38.530Z,1014.21
2019-02-16T01:07:38.499Z,1014.20
2019-02-16T01:08:38.490Z,1014.16
2019-02-16T01:09:38.475Z,1014.09
2019-02-16T01:10:38.464Z,1014.15
2019-02-16T01:11:38.493Z,1014.07
2019-02-16T01:12:38.441Z,1014.12
2019-02-16T01:13:38.430Z,1014.11
2019-02-16T01:14:38.445Z,1014.12
2019-02-16T01:15:38.408Z,1014.08
2019-02-16T01:16:38.395Z,1014.04
2019-02-16T01:17:38.405Z,1014.03
2019-02-16T01:18:38.370Z,1014.06
2019-02-16T01:19:38.359Z,1013.98
2019-02-16T01:20:38.351Z,1013.98
2019-02-16T01:21:38.336Z,1013.98
2019-02-16T01:22:38.344Z,1014.00
2019-02-16T01:23:38.313Z,1013.98
2019-02-16T01:24:38.304Z,1014.01
2019-02-16T01:25:38.290Z,1014.00
2019-02-16T01:26:38.278Z,1013.95
2019-02-16T01:27:38.288Z,1013.98
2019-02-16T01:28:38.255Z,1013.96
2019-02-16T01:29:38.249Z,1013.81
2019-02-16T01:30:38.231Z,1013.93
2019-02-16T01:31:38.219Z,1013.95
2019-02-16T01:32:38.228Z,1013.93
2019-02-16T01:33:38.206Z,1013.90
2019-02-16T01:34:38.186Z,1013.93
2019-02-16T01:35:38.175Z,1013.90
2019-02-16T01:36:38.163Z,1013.88
2019-02-16T01:37:38.172Z,1013.89
2019-02-16T01:38:38.156Z,1013.86
2019-02-16T01:39:38.137Z,1013.91
2019-02-16T01:40:38.119Z,1013.85
2019-02-16T01:41:38.106Z,1013.85
2019-02-16T01:42:38.094Z,1013.91
2019-02-16T01:43:38.100Z,1013.88
2019-02-16T01:44:38.102Z,1013.84
2019-02-16T01:45:38.057Z,1013.83
2019-02-16T01:46:38.048Z,1013.84
2019-02-16T01:47:38.034Z,1013.81
2019-02-16T01:48:38.046Z,1013.80
2019-02-16T01:49:38.023Z,1013.83
2019-02-16T01:50:38.000Z,1013.80
2019-02-16T01:51:37.988Z,1013.83
2019-02-16T01:52:37.977Z,1013.80
2019-02-16T01:53:37.984Z,1013.78
2019-02-16T01:54:37.957Z,1013.80
2019-02-16T01:55:37.943Z,1013.85
2019-02-16T01:56:37.930Z,1013.82
2019-02-16T01:57:37.919Z,1013.86
2019-02-16T01:58:37.927Z,1013.78
2019-02-16T01:59:37.896Z,1013.78
2019-02-16T02:00:37.887Z,1013.82
2019-02-16T02:01:37.878Z,1013.77
2019-02-16T02:02:37.860Z,1013.71
2019-02-16T02:03:37.869Z,1013.77
2019-02-16T02:04:37.839Z,1013.72
2019-02-16T02:05:37.825Z,1013.73
2019-02-16T02:06:37.812Z,1013.76
2019-02-16T02:07:37.803Z,1013.72
2019-02-16T02:08:37.809Z,1013.76
2019-02-16T02:09:37.781Z,1013.74
2019-02-16T02:10:37.769Z,1013.70
2019-02-16T02:11:37.756Z,1013.69
2019-02-16T02:12:37.744Z,1013.70
2019-02-16T02:13:37.751Z,1013.71
2019-02-16T02:14:37.725Z,1013.68
2019-02-16T02:15:37.709Z,1013.75
2019-02-16T02:16:37.698Z,1013.75
2019-02-16T02:17:37.686Z,1013.73
2019-02-16T02:18:37.697Z,1013.70
2019-02-16T02:19:37.662Z,1013.71
2019-02-16T02:20:37.674Z,1013.72
2019-02-16T02:21:41.169Z,1013.70
2019-02-16T02:22:37.630Z,1013.65
2019-02-16T02:23:37.617Z,1013.67
2019-02-16T02:24:37.606Z,1013.73
2019-02-16T02:25:37.595Z,1013.69
2019-02-16T02:26:37.603Z,1013.73
2019-02-16T02:27:37.573Z,1013.73
2019-02-16T02:28:37.557Z,1013.69
2019-02-16T02:29:37.547Z,1013.63
2019-02-16T02:30:37.535Z,1013.59
2019-02-16T02:31:37.763Z,1013.59
2019-02-16T02:32:37.513Z,1013.60
2019-02-16T02:33:37.502Z,1013.69
2019-02-16T02:34:37.491Z,1013.61
2019-02-16T02:35:44.521Z,1013.62
2019-02-16T02:36:37.498Z,1013.60
2019-02-16T02:37:37.455Z,1013.63
2019-02-16T02:38:37.444Z,1013.62
2019-02-16T02:39:37.434Z,1013.61
2019-02-16T02:40:37.420Z,1013.63
2019-02-16T02:41:37.432Z,1013.61
2019-02-16T02:42:37.397Z,1013.63
2019-02-16T02:43:37.385Z,1013.63
2019-02-16T02:44:37.372Z,1013.61
2019-02-16T02:45:37.361Z,1013.59
2019-02-16T02:46:37.353Z,1013.59
2019-02-16T02:47:37.356Z,1013.55
2019-02-16T02:48:37.331Z,1013.54
2019-02-16T02:49:37.315Z,1013.59
2019-02-16T02:50:37.307Z,1013.56
2019-02-16T02:51:37.293Z,1013.54
2019-02-16T02:52:37.305Z,1013.63
2019-02-16T02:53:37.271Z,1013.62
2019-02-16T02:54:37.258Z,1013.57
2019-02-16T02:55:37.255Z,1013.59
2019-02-16T02:56:37.234Z,1013.53
2019-02-16T02:57:37.248Z,1013.56
2019-02-16T02:58:37.282Z,1013.54
2019-02-16T02:59:37.199Z,1013.54
2019-02-16T03:00:37.188Z,1013.59
2019-02-16T03:01:37.181Z,1013.52
2019-02-16T03:02:37.165Z,1013.60
2019-02-16T03:03:37.173Z,1013.55
2019-02-16T03:04:37.139Z,1013.59
2019-02-16T03:05:37.128Z,1013.53
2019-02-16T03:06:37.117Z,1013.55
2019-02-16T03:07:37.128Z,1013.57
2019-02-16T03:08:37.136Z,1013.54
2019-02-16T03:09:37.084Z,1013.56
2019-02-16T03:10:37.071Z,1013.54
2019-02-16T03:11:37.058Z,1013.54
2019-02-16T03:12:37.047Z,1013.54
2019-02-16T03:13:37.034Z,1013.48
2019-02-16T03:14:37.047Z,1013.57
2019-02-16T03:15:37.012Z,1013.57
2019-02-16T03:16:37.005Z,1013.57
2019-02-16T03:17:36.988Z,1013.51
2019-02-16T03:18:36.975Z,1013.55
2019-02-16T03:19:36.984Z,1013.58
2019-02-16T03:20:36.955Z,1013.57
2019-02-16T03:21:36.942Z,1013.59
2019-02-16T03:22:36.936Z,1013.62
2019-02-16T03:23:36.920Z,1013.55
2019-02-16T03:24:36.997Z,1013.53
2019-02-16T03:25:36.894Z,1013.58
2019-02-16T03:26:36.888Z,1013.49
2019-02-16T03:27:36.875Z,1013.49
2019-02-16T03:28:36.860Z,1013.57
2019-02-16T03:29:36.866Z,1013.53
2019-02-16T03:30:36.847Z,1013.50
2019-02-16T03:31:36.826Z,1013.46
2019-02-16T03:32:36.820Z,1013.46
2019-02-16T03:33:36.806Z,1013.48
2019-02-16T03:34:36.846Z,1013.50
2019-02-16T03:35:38.891Z,1013.47
2019-02-16T03:36:36.767Z,1013.48
2019-02-16T03:37:36.758Z,1013.48
2019-02-16T03:38:36.745Z,1013.48
2019-02-16T03:39:36.734Z,1013.47
2019-02-16T03:40:36.753Z,1013.40
2019-02-16T03:41:36.709Z,1013.45
2019-02-16T03:42:36.696Z,1013.41
2019-02-16T03:43:36.688Z,1013.40
2019-02-16T03:44:36.673Z,1013.40
2019-02-16T03:45:36.660Z,1013.40
2019-02-16T03:46:36.670Z,1013.39
2019-02-16T03:47:36.636Z,1013.42
2019-02-16T03:48:36.625Z,1013.43
2019-02-16T03:49:36.615Z,1013.41
2019-02-16T03:50:36.616Z,1013.34
2019-02-16T03:51:36.609Z,1013.38
2019-02-16T03:52:36.583Z,1013.34
2019-02-16T03:53:36.570Z,1013.38
2019-02-16T03:54:36.556Z,1013.33
2019-02-16T03:55:36.544Z,1013.37
2019-02-16T03:56:36.553Z,1013.35
2019-02-16T03:57:36.520Z,1013.32
2019-02-16T03:58:36.509Z,1013.40
2019-02-16T03:59:36.497Z,1013.43
2019-02-16T04:00:36.483Z,1013.41
2019-02-16T04:01:36.501Z,1013.40
2019-02-16T04:02:36.461Z,1013.37
2019-02-16T04:03:36.453Z,1013.38
2019-02-16T04:04:36.438Z,1013.34
2019-02-16T04:05:36.429Z,1013.32
2019-02-16T04:06:36.439Z,1013.37
2019-02-16T04:07:36.422Z,1013.35
2019-02-16T04:08:36.396Z,1013.37
2019-02-16T04:09:36.379Z,1013.30
2019-02-16T04:10:36.370Z,1013.35
2019-02-16T04:11:36.375Z,1013.32
2019-02-16T04:12:36.345Z,1013.30
2019-02-16T04:13:36.343Z,1013.32
2019-02-16T04:14:36.318Z,1013.40
2019-02-16T04:15:36.309Z,1013.31
2019-02-16T04:16:36.338Z,1013.30
2019-02-16T04:17:36.284Z,1013.29
2019-02-16T04:18:36.271Z,1013.32
2019-02-16T04:19:36.260Z,1013.29
2019-02-16T04:20:36.259Z,1013.32
2019-02-16T04:21:36.252Z,1013.29
2019-02-16T04:22:36.244Z,1013.27
2019-02-16T04:23:36.211Z,1013.33
2019-02-16T04:24:36.200Z,1013.27
2019-02-16T04:25:36.189Z,1013.30
2019-02-16T04:26:36.178Z,1013.31
2019-02-16T04:27:36.188Z,1013.30
2019-02-16T04:28:36.156Z,1013.28
2019-02-16T04:29:36.141Z,1013.28
2019-02-16T04:30:36.131Z,1013.23
2019-02-16T04:31:36.119Z,1013.17
2019-02-16T04:32:36.149Z,1013.22
2019-02-16T04:33:36.096Z,1013.16
2019-02-16T04:34:36.081Z,1013.17
2019-02-16T04:35:36.070Z,1013.16
2019-02-16T04:36:36.063Z,1013.18
2019-02-16T04:37:36.048Z,1013.23
2019-02-16T04:38:36.059Z,1013.13
2019-02-16T04:39:36.022Z,1013.16
2019-02-16T04:40:36.012Z,1013.15
2019-02-16T04:41:36.001Z,1013.15
2019-02-16T04:42:35.989Z,1013.16
2019-02-16T04:43:35.975Z,1013.17
2019-02-16T04:44:36.074Z,1013.14
2019-02-16T04:45:35.955Z,1013.18
2019-02-16T04:46:35.941Z,1013.16
2019-02-16T04:47:35.932Z,1013.15
2019-02-16T04:48:35.920Z,1013.16
2019-02-16T04:49:35.925Z,1013.19
2019-02-16T04:50:35.894Z,1013.18
2019-02-16T04:51:35.883Z,1013.19
2019-02-16T04:52:35.869Z,1013.16
2019-02-16T04:53:35.859Z,1013.18
2019-02-16T04:54:35.864Z,1013.17
2019-02-16T04:55:35.832Z,1013.20
2019-02-16T04:56:35.826Z,1013.24
2019-02-16T04:57:35.809Z,1013.17
2019-02-16T04:58:35.797Z,1013.20
2019-02-16T04:59:35.807Z,1013.18
2019-02-16T05:00:35.774Z,1013.17
2019-02-16T05:01:35.762Z,1013.22
2019-02-16T05:02:35.750Z,1013.23
2019-02-16T05:03:35.741Z,1013.18
2019-02-16T05:04:35.724Z,1013.19
2019-02-16T05:05:35.733Z,1013.13
2019-02-16T05:06:35.701Z,1013.21
2019-02-16T05:07:35.690Z,1013.17
2019-02-16T05:08:35.676Z,1013.20
2019-02-16T05:09:35.666Z,1013.19
2019-02-16T05:10:35.687Z,1013.22
2019-02-16T05:11:35.643Z,1013.16
2019-02-16T05:12:35.629Z,1013.07
2019-02-16T05:13:35.621Z,1013.09
2019-02-16T05:14:35.606Z,1013.07
2019-02-16T05:15:35.595Z,1013.03
2019-02-16T05:16:35.603Z,1013.01
2019-02-16T05:17:35.571Z,1013.00
2019-02-16T05:18:35.565Z,1013.00
2019-02-16T05:19:35.549Z,1013.01
2019-02-16T05:20:35.537Z,1013.03
2019-02-16T05:21:35.547Z,1013.07
2019-02-16T05:22:44.132Z,1013.12
2019-02-16T05:23:36.505Z,1013.10
2019-02-16T05:24:35.492Z,1013.12
2019-02-16T05:25:35.479Z,1013.08
2019-02-16T05:26:35.497Z,1013.12
2019-02-16T05:27:35.455Z,1013.08
2019-02-16T05:28:35.444Z,1013.07
2019-02-16T05:29:35.432Z,1013.04
2019-02-16T05:30:35.421Z,1013.02
2019-02-16T05:31:35.428Z,1013.05
2019-02-16T05:32:35.397Z,1012.99
2019-02-16T05:33:35.388Z,1012.98
2019-02-16T05:34:35.375Z,1012.96
2019-02-16T05:35:35.360Z,1012.91
2019-02-16T05:36:35.373Z,1012.88
2019-02-16T05:37:35.338Z,1012.90
2019-02-16T05:38:35.335Z,1012.88
2019-02-16T05:39:35.315Z,1012.92
2019-02-16T05:40:35.305Z,1012.86
2019-02-16T05:41:35.291Z,1012.87
2019-02-16T05:42:35.297Z,1012.87
2019-02-16T05:43:35.277Z,1012.81
2019-02-16T05:44:35.258Z,1012.83
2019-02-16T05:45:35.245Z,1012.83
2019-02-16T05:46:35.242Z,1012.86
2019-02-16T05:47:35.247Z,1012.87
2019-02-16T05:48:35.212Z,1012.87
2019-02-16T05:49:35.197Z,1012.97
2019-02-16T05:50:35.186Z,1012.93
2019-02-16T05:51:35.174Z,1012.92
2019-02-16T05:52:35.164Z,1012.97
2019-02-16T05:53:35.168Z,1012.97
2019-02-16T05:54:35.138Z,1012.91
2019-02-16T05:55:35.130Z,1013.00
2019-02-16T05:56:35.114Z,1013.02
2019-02-16T05:57:35.108Z,1013.07
2019-02-16T05:58:35.111Z,1013.08
2019-02-16T05:59:35.083Z,1013.03
2019-02-16T06:00:35.074Z,1013.08
2019-02-16T06:01:35.058Z,1013.12
2019-02-16T06:02:35.044Z,1013.13
2019-02-16T06:03:35.053Z,1013.11
2019-02-16T06:04:35.022Z,1013.10
2019-02-16T06:05:35.012Z,1013.14
2019-02-16T06:06:34.997Z,1013.12
2019-02-16T06:07:34.985Z,1013.09
2019-02-16T06:08:35.000Z,1013.06
2019-02-16T06:09:34.967Z,1013.12
2019-02-16T06:10:34.955Z,1013.09
2019-02-16T06:11:34.942Z,1013.10
2019-02-16T06:12:34.929Z,1013.09
2019-02-16T06:13:34.917Z,1013.09
2019-02-16T06:14:34.932Z,1013.09
2019-02-16T06:15:34.895Z,1013.07
2019-02-16T06:16:34.881Z,1013.11
2019-02-16T06:17:34.872Z,1013.08
2019-02-16T06:18:34.863Z,1013.09
2019-02-16T06:19:34.867Z,1013.09
2019-02-16T06:20:34.834Z,1013.08
2019-02-16T06:21:34.822Z,1013.09
2019-02-16T06:22:34.809Z,1013.11
2019-02-16T06:23:34.801Z,1013.12
2019-02-16T06:24:34.806Z,1013.14
2019-02-16T06:25:34.774Z,1013.16
2019-02-16T06:26:34.761Z,1013.16
2019-02-16T06:27:34.757Z,1013.14
2019-02-16T06:28:35.644Z,1013.18
2019-02-16T06:29:34.747Z,1013.21
2019-02-16T06:30:34.716Z,1013.20
2019-02-16T06:31:34.705Z,1013.23
2019-02-16T06:32:34.693Z,1013.23
2019-02-16T06:33:34.682Z,1013.22
2019-02-16T06:34:34.708Z,1013.29
2019-02-16T06:35:34.657Z,1013.30
2019-02-16T06:36:34.651Z,1013.29
2019-02-16T06:37:34.633Z,1013.26
2019-02-16T06:38:34.629Z,1013.28
2019-02-16T06:39:34.610Z,1013.27
2019-02-16T06:40:34.619Z,1013.23
2019-02-16T06:41:34.588Z,1013.20
2019-02-16T06:42:34.575Z,1013.24
2019-02-16T06:43:34.565Z,1013.26
2019-02-16T06:44:34.554Z,1013.31
2019-02-16T06:45:34.562Z,1013.32
2019-02-16T06:46:34.529Z,1013.33
2019-02-16T06:47:34.518Z,1013.34
2019-02-16T06:48:34.507Z,1013.33
2019-02-16T06:49:34.500Z,1013.37
2019-02-16T06:50:37.045Z,1013.39
2019-02-16T06:51:34.471Z,1013.40
2019-02-16T06:52:34.460Z,1013.41
2019-02-16T06:53:34.452Z,1013.40
2019-02-16T06:54:34.442Z,1013.48
2019-02-16T06:55:34.426Z,1013.43
2019-02-16T06:56:34.432Z,1013.46
2019-02-16T06:57:34.402Z,1013.47
2019-02-16T06:58:34.390Z,1013.46
2019-02-16T06:59:34.387Z,1013.45
2019-02-16T07:00:34.369Z,1013.40
2019-02-16T07:01:34.375Z,1013.43
2019-02-16T07:02:34.348Z,1013.40
2019-02-16T07:03:34.333Z,1013.47
2019-02-16T07:04:34.325Z,1013.47
2019-02-16T07:05:34.310Z,1013.48
2019-02-16T07:06:34.340Z,1013.54
2019-02-16T07:07:34.285Z,1013.56
2019-02-16T07:08:34.280Z,1013.54
2019-02-16T07:09:34.261Z,1013.57
2019-02-16T07:10:34.248Z,1013.59
2019-02-16T07:11:34.277Z,1013.58
2019-02-16T07:12:34.225Z,1013.56
2019-02-16T07:13:34.215Z,1013.56
2019-02-16T07:14:34.201Z,1013.55
2019-02-16T07:15:34.204Z,1013.47
2019-02-16T07:16:34.177Z,1013.51
2019-02-16T07:17:34.183Z,1013.47
2019-02-16T07:18:34.162Z,1013.52
2019-02-16T07:19:34.142Z,1013.52
2019-02-16T07:20:34.130Z,1013.57
2019-02-16T07:21:34.118Z,1013.54
2019-02-16T07:22:34.127Z,1013.58
2019-02-16T07:23:34.094Z,1013.56
2019-02-16T07:24:34.086Z,1013.58
2019-02-16T07:25:34.068Z,1013.56
2019-02-16T07:26:34.058Z,1013.54
2019-02-16T07:27:34.067Z,1013.57
2019-02-16T07:28:34.033Z,1013.56
2019-02-16T07:29:34.030Z,1013.57
2019-02-16T07:30:34.010Z,1013.57
2019-02-16T07:31:33.998Z,1013.51
2019-02-16T07:32:34.009Z,1013.53
2019-02-16T07:33:33.974Z,1013.52
2019-02-16T07:34:33.965Z,1013.53
2019-02-16T07:35:33.951Z,1013.54
2019-02-16T07:36:33.938Z,1013.53
2019-02-16T07:37:33.929Z,1013.57
2019-02-16T07:38:33.936Z,1013.58
2019-02-16T07:39:33.903Z,1013.60
2019-02-16T07:40:33.944Z,1013.63
2019-02-16T07:41:33.881Z,1013.69
2019-02-16T07:42:33.867Z,1013.77
2019-02-16T07:43:33.877Z,1013.73
2019-02-16T07:44:33.842Z,1013.74
2019-02-16T07:45:33.835Z,1013.73
2019-02-16T07:46:33.819Z,1013.67
2019-02-16T07:47:33.807Z,1013.67
2019-02-16T07:48:33.798Z,1013.68
2019-02-16T07:49:33.823Z,1013.69
2019-02-16T07:50:33.771Z,1013.78
2019-02-16T07:51:33.756Z,1013.82
2019-02-16T07:52:33.746Z,1013.71
2019-02-16T07:53:33.734Z,1013.65
2019-02-16T07:54:33.723Z,1013.69
2019-02-16T07:55:33.732Z,1013.71
2019-02-16T07:56:33.701Z,1013.72
2019-02-16T07:57:33.693Z,1013.80
2019-02-16T07:58:33.675Z,1013.74
2019-02-16T07:59:33.667Z,1013.80
2019-02-16T08:00:33.692Z,1013.82
2019-02-16T08:01:33.640Z,1013.85
2019-02-16T08:02:33.630Z,1013.91
2019-02-16T08:03:33.618Z,1013.95
2019-02-16T08:04:33.606Z,1014.00
2019-02-16T08:05:33.616Z,1014.00
2019-02-16T08:06:33.582Z,1014.02
2019-02-16T08:07:33.574Z,1014.03
2019-02-16T08:08:33.577Z,1014.01
2019-02-16T08:09:33.548Z,1013.99
2019-02-16T08:10:33.534Z,1013.96
2019-02-16T08:11:33.541Z,1013.98
2019-02-16T08:12:33.513Z,1013.96
2019-02-16T08:13:33.500Z,1013.99
2019-02-16T08:14:33.490Z,1013.99
2019-02-16T08:15:33.476Z,1013.95
2019-02-16T08:16:33.485Z,1013.96
2019-02-16T08:17:33.452Z,1013.85
2019-02-16T08:18:33.442Z,1013.88
2019-02-16T08:19:33.429Z,1013.78
2019-02-16T08:20:33.417Z,1013.67
2019-02-16T08:21:33.407Z,1013.74
2019-02-16T08:22:33.415Z,1013.73
2019-02-16T08:23:40.157Z,1013.79
2019-02-16T08:24:34.370Z,1013.79
2019-02-16T08:25:33.360Z,1013.79
2019-02-16T08:26:33.347Z,1013.82
2019-02-16T08:27:33.356Z,1013.77
2019-02-16T08:28:33.328Z,1013.83
2019-02-16T08:29:33.312Z,1013.94
2019-02-16T08:30:33.301Z,1013.88
2019-02-16T08:31:33.289Z,1013.90
2019-02-16T08:32:33.295Z,1013.88
2019-02-16T08:33:33.265Z,1013.94
2019-02-16T08:34:33.258Z,1013.99
2019-02-16T08:35:33.244Z,1013.98
2019-02-16T08:36:40.270Z,1014.02
2019-02-16T08:37:33.241Z,1013.99
2019-02-16T08:38:33.209Z,1014.02
2019-02-16T08:39:33.194Z,1013.96
2019-02-16T08:40:33.183Z,1013.95
2019-02-16T08:41:33.176Z,1013.98
2019-02-16T08:42:33.192Z,1013.99
2019-02-16T08:43:33.146Z,1013.94
2019-02-16T08:44:33.135Z,1013.95
2019-02-16T08:45:33.126Z,1013.90
2019-02-16T08:46:33.112Z,1013.96
2019-02-16T08:47:33.102Z,1013.97
2019-02-16T08:48:33.107Z,1013.93
2019-02-16T08:49:33.079Z,1013.95
2019-02-16T08:50:33.066Z,1013.91
2019-02-16T08:51:33.061Z,1013.89
2019-02-16T08:52:33.086Z,1013.84
2019-02-16T08:53:33.035Z,1013.94
2019-02-16T08:54:33.018Z,1013.95
2019-02-16T08:55:33.006Z,1013.92
2019-02-16T08:56:32.993Z,1013.92
2019-02-16T08:57:32.990Z,1013.91
2019-02-16T08:58:32.990Z,1013.92
2019-02-16T08:59:32.963Z,1013.95
2019-02-16T09:00:32.949Z,1013.93
2019-02-16T09:01:32.940Z,1013.93
2019-02-16T09:02:32.930Z,1013.91
2019-02-16T09:03:32.935Z,1013.89
2019-02-16T09:04:32.903Z,1013.86
2019-02-16T09:05:32.894Z,1013.86
2019-02-16T09:06:32.879Z,1013.87
2019-02-16T09:07:32.870Z,1013.83
2019-02-16T09:08:32.882Z,1013.76
2019-02-16T09:09:32.846Z,1013.78
2019-02-16T09:10:32.842Z,1013.75
2019-02-16T09:11:32.823Z,1013.75
2019-02-16T09:12:32.810Z,1013.75
2019-02-16T09:13:32.800Z,1013.77
2019-02-16T09:14:32.807Z,1013.78
2019-02-16T09:15:32.777Z,1013.76
2019-02-16T09:16:32.763Z,1013.80
2019-02-16T09:17:32.752Z,1013.71
2019-02-16T09:18:32.743Z,1013.75
2019-02-16T09:19:32.747Z,1013.77
2019-02-16T09:20:32.717Z,1013.80
2019-02-16T09:21:32.707Z,1013.74
2019-02-16T09:22:32.694Z,1013.76
2019-02-16T09:23:32.684Z,1013.74
2019-02-16T09:24:32.691Z,1013.73
2019-02-16T09:25:32.662Z,1013.73
2019-02-16T09:26:32.648Z,1013.68
2019-02-16T09:27:32.637Z,1013.71
2019-02-16T09:28:32.623Z,1013.67
2019-02-16T09:29:32.632Z,1013.72
2019-02-16T09:30:32.602Z,1013.74
2019-02-16T09:31:32.589Z,1013.71
2019-02-16T09:32:32.579Z,1013.72
2019-02-16T09:33:32.943Z,1013.75
2019-02-16T09:34:32.555Z,1013.79
2019-02-16T09:35:32.593Z,1013.75
2019-02-16T09:36:32.537Z,1013.74
2019-02-16T09:37:32.521Z,1013.76
2019-02-16T09:38:32.511Z,1013.77
2019-02-16T09:39:32.498Z,1013.71
2019-02-16T09:40:32.493Z,1013.71
2019-02-16T09:41:32.494Z,1013.71
2019-02-16T09:42:32.463Z,1013.75
2019-02-16T09:43:32.453Z,1013.70
2019-02-16T09:44:32.441Z,1013.68
2019-02-16T09:45:32.434Z,1013.74
2019-02-16T09:46:32.446Z,1013.78
2019-02-16T09:47:32.409Z,1013.80
2019-02-16T09:48:32.395Z,1013.76
2019-02-16T09:49:32.385Z,1013.82
2019-02-16T09:50:32.374Z,1013.81
2019-02-16T09:51:32.365Z,1013.87
2019-02-16T09:52:32.371Z,1013.88
2019-02-16T09:53:32.341Z,1013.94
2019-02-16T09:54:32.327Z,1013.95
2019-02-16T09:55:32.317Z,1013.99
2019-02-16T09:56:32.306Z,1013.99
2019-02-16T09:57:32.770Z,1014.01
2019-02-16T09:58:32.283Z,1013.97
2019-02-16T09:59:32.271Z,1013.99
2019-02-16T10:00:32.274Z,1013.98
2019-02-16T10:01:32.253Z,1013.99
2019-02-16T10:02:32.255Z,1013.92
2019-02-16T10:03:32.232Z,1013.95
2019-02-16T10:04:32.214Z,1013.95
2019-02-16T10:05:32.203Z,1013.91
2019-02-16T10:06:32.191Z,1013.92
2019-02-16T10:07:32.181Z,1013.94
2019-02-16T10:08:32.188Z,1013.99
2019-02-16T10:09:32.157Z,1013.99
2019-02-16T10:10:32.146Z,1014.06
2019-02-16T10:11:32.135Z,1014.01
2019-02-16T10:12:32.122Z,1014.05
2019-02-16T10:13:32.131Z,1014.02
2019-02-16T10:14:32.100Z,1014.04
2019-02-16T10:15:32.089Z,1014.02
2019-02-16T10:16:32.081Z,1013.98
2019-02-16T10:17:32.066Z,1013.95
2019-02-16T10:18:32.073Z,1013.98
2019-02-16T10:19:32.042Z,1014.01
2019-02-16T10:20:32.033Z,1014.00
2019-02-16T10:21:32.018Z,1014.04
2019-02-16T10:22:32.048Z,1014.06
2019-02-16T10:23:31.997Z,1014.12
2019-02-16T10:24:31.985Z,1014.10
2019-02-16T10:25:31.975Z,1014.05
2019-02-16T10:26:31.963Z,1014.05
2019-02-16T10:27:31.952Z,1014.03
2019-02-16T10:28:31.962Z,1014.02
2019-02-16T10:29:31.932Z,1014.01
2019-02-16T10:30:31.918Z,1014.01
2019-02-16T10:31:31.907Z,1014.05
2019-02-16T10:32:31.897Z,1013.97
2019-02-16T10:33:31.925Z,1013.98
2019-02-16T10:34:31.915Z,1013.99
2019-02-16T10:35:31.861Z,1013.98
2019-02-16T10:36:31.860Z,1014.02
2019-02-16T10:37:31.841Z,1013.97
2019-02-16T10:38:31.827Z,1013.99
2019-02-16T10:39:31.835Z,1014.02
2019-02-16T10:40:31.805Z,1014.12
2019-02-16T10:41:31.791Z,1014.10
2019-02-16T10:42:33.522Z,1014.09
2019-02-16T10:43:31.769Z,1014.08
2019-02-16T10:44:31.776Z,1014.07
2019-02-16T10:45:31.748Z,1014.08
2019-02-16T10:46:31.735Z,1014.10
2019-02-16T10:47:31.723Z,1014.05
2019-02-16T10:48:31.712Z,1014.04
2019-02-16T10:49:31.740Z,1014.06
2019-02-16T10:50:31.689Z,1014.07
2019-02-16T10:51:31.683Z,1014.06
2019-02-16T10:52:31.666Z,1014.06
2019-02-16T10:53:31.661Z,1014.14
2019-02-16T10:54:31.642Z,1014.12
2019-02-16T10:55:31.651Z,1014.14
2019-02-16T10:56:31.621Z,1014.13
2019-02-16T10:57:31.610Z,1014.08
2019-02-16T10:58:31.616Z,1014.08
2019-02-16T10:59:31.587Z,1014.06
2019-02-16T11:00:31.600Z,1014.10
2019-02-16T11:01:31.565Z,1014.06
2019-02-16T11:02:31.552Z,1014.07
2019-02-16T11:03:31.545Z,1014.20
2019-02-16T11:04:37.944Z,1014.11
2019-02-16T11:05:32.539Z,1014.13
2019-02-16T11:06:31.508Z,1014.12
2019-02-16T11:07:31.498Z,1014.16
2019-02-16T11:08:31.878Z,1014.11
2019-02-16T11:09:31.474Z,1014.16
2019-02-16T11:10:31.463Z,1014.16
2019-02-16T11:11:31.476Z,1014.08
2019-02-16T11:12:31.821Z,1014.12
2019-02-16T11:13:31.430Z,1014.13
2019-02-16T11:14:31.419Z,1014.13
2019-02-16T11:15:31.407Z,1014.07
2019-02-16T11:16:31.415Z,1014.10
2019-02-16T11:17:31.383Z,1014.09
2019-02-16T11:18:31.380Z,1014.07
2019-02-16T11:19:31.361Z,1014.09
2019-02-16T11:20:31.350Z,1014.06
2019-02-16T11:21:31.364Z,1014.05
2019-02-16T11:22:31.330Z,1014.06
2019-02-16T11:23:31.317Z,1014.09
2019-02-16T11:24:36.079Z,1014.06
2019-02-16T11:25:32.294Z,1014.10
2019-02-16T11:26:31.283Z,1014.10
2019-02-16T11:27:31.315Z,1014.09
2019-02-16T11:28:31.261Z,1014.08
2019-02-16T11:29:31.249Z,1014.04
2019-02-16T11:30:31.238Z,1014.05
2019-02-16T11:31:31.231Z,1014.05
2019-02-16T11:32:31.216Z,1013.96
2019-02-16T11:33:31.228Z,1013.95
2019-02-16T11:34:31.229Z,1013.94
2019-02-16T11:35:31.181Z,1014.04
2019-02-16T11:36:31.170Z,1013.96
2019-02-16T11:37:31.163Z,1013.95
2019-02-16T11:38:31.170Z,1013.93
2019-02-16T11:39:31.137Z,1013.94
2019-02-16T11:40:31.129Z,1013.96
2019-02-16T11:41:31.116Z,1013.97
2019-02-16T11:42:31.106Z,1013.98
2019-02-16T11:43:31.093Z,1013.97
2019-02-16T11:44:31.105Z,1013.99
2019-02-16T11:45:32.643Z,1013.93
2019-02-16T11:46:31.059Z,1013.87
2019-02-16T11:47:31.048Z,1013.87
2019-02-16T11:48:31.037Z,1013.81
2019-02-16T11:49:31.028Z,1013.83
2019-02-16T11:50:31.034Z,1013.81
2019-02-16T11:51:31.005Z,1013.75
2019-02-16T11:52:30.992Z,1013.72
2019-02-16T11:53:30.978Z,1013.71
2019-02-16T11:54:30.967Z,1013.71
2019-02-16T11:55:30.979Z,1013.73
2019-02-16T11:56:30.944Z,1013.64
2019-02-16T11:57:30.932Z,1013.66
2019-02-16T11:58:30.922Z,1013.65
2019-02-16T11:59:30.915Z,1013.57
2019-02-16T12:00:30.901Z,1013.61
2019-02-16T12:01:30.908Z,1013.61
2019-02-16T12:02:39.092Z,1013.56
2019-02-16T12:03:31.868Z,1013.57
2019-02-16T12:04:30.857Z,1013.57
2019-02-16T12:05:30.843Z,1013.56